createdAt,value
2022-10-05T00:02:53.914Z,1.15
2022-10-05T00:05:55.697Z,0.88
2022-10-05T00:08:57.618Z,0.93
2022-10-05T00:11:59.659Z,1.27
2022-10-05T00:15:01.585Z,0.98
2022-10-05T00:18:11.191Z,0.77
2022-10-05T00:21:20.245Z,0.65
2022-10-05T00:24:22.062Z,1.17
2022-10-05T00:27:32.166Z,0.50
2022-10-05T00:30:34.239Z,0.50
2022-10-05T00:33:36.832Z,0.75
2022-10-05T00:36:39.694Z,1.35
2022-10-05T00:39:42.240Z,0.63
2022-10-05T00:42:56.651Z,0.88
2022-10-05T00:46:22.048Z,0.70
2022-10-05T00:49:38.894Z,1.67
2022-10-05T00:53:39.583Z,0.60
2022-10-05T00:56:53.164Z,0.88
2022-10-05T01:00:13.353Z,0.77
2022-10-05T01:03:16.151Z,1.08
2022-10-05T01:06:44.101Z,0.80
2022-10-05T01:09:56.013Z,0.80
2022-10-05T01:13:40.000Z,1.20
2022-10-05T01:16:51.420Z,0.88
2022-10-05T01:20:13.278Z,0.90
2022-10-05T01:23:33.320Z,0.90
2022-10-05T01:26:56.165Z,0.77
2022-10-05T01:30:13.544Z,0.90
2022-10-05T01:33:18.507Z,0.70
2022-10-05T01:36:28.633Z,0.63
2022-10-05T01:40:01.392Z,1.10
2022-10-05T01:43:30.314Z,0.70
2022-10-05T01:46:42.348Z,0.60
2022-10-05T01:49:56.384Z,0.73
2022-10-05T01:53:13.250Z,0.85
2022-10-05T01:56:47.423Z,0.75
2022-10-05T02:00:14.591Z,0.95
2022-10-05T02:03:20.993Z,0.70
2022-10-05T02:06:30.710Z,1.17
2022-10-05T02:09:39.711Z,0.52
2022-10-05T02:12:43.623Z,0.60
2022-10-05T02:15:53.189Z,0.70
2022-10-05T02:19:00.312Z,0.50
2022-10-05T02:25:20.408Z,0.90
2022-10-05T02:28:23.801Z,0.77
2022-10-05T02:31:31.547Z,0.95
2022-10-05T02:34:39.992Z,0.82
2022-10-05T02:38:09.576Z,0.83
2022-10-05T02:41:38.846Z,0.57
2022-10-05T02:45:03.757Z,0.80
2022-10-05T02:48:25.499Z,0.77
2022-10-05T02:51:35.863Z,0.70
2022-10-05T02:54:50.991Z,0.60
2022-10-05T02:58:12.122Z,0.60
2022-10-05T03:01:27.741Z,0.73
2022-10-05T03:04:37.397Z,0.55
2022-10-05T03:07:50.970Z,1.02
2022-10-05T03:11:04.803Z,0.73
2022-10-05T03:14:44.057Z,0.75
2022-10-05T03:18:20.455Z,0.45
2022-10-05T03:21:22.660Z,0.47
2022-10-05T03:24:43.817Z,0.65
2022-10-05T03:27:59.948Z,1.02
2022-10-05T03:31:23.973Z,0.85
2022-10-05T03:34:49.309Z,0.70
2022-10-05T03:38:15.663Z,0.60
2022-10-05T03:41:35.728Z,0.90
2022-10-05T03:45:09.590Z,0.80
2022-10-05T03:48:16.180Z,0.40
2022-10-05T03:51:29.965Z,0.80
2022-10-05T03:55:00.499Z,1.30
2022-10-05T03:58:20.327Z,0.50
2022-10-05T04:01:29.687Z,1.20
2022-10-05T04:04:38.741Z,0.75
2022-10-05T04:07:48.442Z,1.00
2022-10-05T04:10:54.988Z,0.90
2022-10-05T04:14:07.335Z,0.77
2022-10-05T04:17:14.648Z,1.05
2022-10-05T04:20:25.331Z,1.40
2022-10-05T04:23:48.569Z,2.58
2022-10-05T04:27:39.582Z,0.93
2022-10-05T04:30:45.607Z,0.80
2022-10-05T04:33:58.238Z,1.05
2022-10-05T04:37:05.587Z,0.75
2022-10-05T04:40:34.223Z,1.00
2022-10-05T04:43:50.693Z,0.95
2022-10-05T04:47:46.583Z,1.45
2022-10-05T04:51:50.286Z,1.13
2022-10-05T04:55:16.195Z,0.85
2022-10-05T04:58:25.566Z,0.93
2022-10-05T05:01:58.940Z,0.50
2022-10-05T05:05:20.505Z,0.80
2022-10-05T05:08:30.991Z,0.73
2022-10-05T05:12:22.667Z,0.50
2022-10-05T05:24:38.987Z,0.73
2022-10-05T05:27:50.072Z,0.55
2022-10-05T05:31:26.137Z,0.80
2022-10-05T05:35:05.874Z,1.15
2022-10-05T05:38:31.254Z,0.65
2022-10-05T05:41:54.333Z,0.30
2022-10-05T05:45:00.497Z,1.05
2022-10-05T05:48:09.465Z,0.47
2022-10-05T05:51:18.051Z,0.75
2022-10-05T05:54:41.340Z,0.55
2022-10-05T05:58:12.105Z,0.68
2022-10-05T06:01:42.038Z,1.02
2022-10-05T06:04:52.150Z,0.70
2022-10-05T06:07:56.255Z,1.52
2022-10-05T06:11:02.858Z,1.75
2022-10-05T06:14:11.556Z,0.77
2022-10-05T06:17:21.366Z,1.80
2022-10-05T06:20:31.140Z,1.52
2022-10-05T06:23:46.358Z,1.65
2022-10-05T06:27:18.307Z,3.40
2022-10-05T06:30:20.439Z,4.18
2022-10-05T06:33:41.690Z,3.47
2022-10-05T06:36:53.376Z,3.05
2022-10-05T06:40:44.341Z,2.17
2022-10-05T06:44:14.115Z,1.80
2022-10-05T06:47:47.571Z,2.35
2022-10-05T06:51:16.992Z,2.38
2022-10-05T06:55:01.285Z,1.85
2022-10-05T06:58:15.485Z,1.73
2022-10-05T07:01:25.296Z,1.58
2022-10-05T07:04:53.403Z,1.77
2022-10-05T07:07:59.426Z,1.80
2022-10-05T07:11:13.889Z,1.00
2022-10-05T07:14:27.781Z,1.70
2022-10-05T07:17:45.696Z,1.67
2022-10-05T07:21:14.688Z,2.17
2022-10-05T07:27:42.538Z,1.20
2022-10-05T07:30:53.885Z,1.10
2022-10-05T07:34:02.980Z,1.08
2022-10-05T07:37:28.563Z,1.30
2022-10-05T07:40:42.143Z,1.70
2022-10-05T07:44:23.291Z,1.20
2022-10-05T07:47:31.289Z,1.38
2022-10-05T07:50:43.825Z,1.42
2022-10-05T07:54:03.204Z,1.02
2022-10-05T07:57:21.818Z,1.38
2022-10-05T08:00:37.956Z,1.45
2022-10-05T08:03:48.214Z,1.30
2022-10-05T08:06:53.209Z,1.17
2022-10-05T08:10:14.765Z,1.80
2022-10-05T08:13:39.739Z,1.95
2022-10-05T08:16:42.398Z,1.48
2022-10-05T08:19:48.527Z,1.58
2022-10-05T08:23:06.996Z,1.53
2022-10-05T08:26:15.413Z,1.38
2022-10-05T08:29:30.543Z,1.40
2022-10-05T08:32:41.249Z,1.40
2022-10-05T08:35:45.432Z,1.33
2022-10-05T08:38:47.794Z,1.45
2022-10-05T08:42:27.333Z,1.48
2022-10-05T08:45:29.107Z,1.60
2022-10-05T08:48:52.687Z,2.05
2022-10-05T08:52:25.999Z,1.85
2022-10-05T08:55:56.104Z,1.45
2022-10-05T08:59:25.924Z,1.77
2022-10-05T09:02:33.571Z,1.52
2022-10-05T09:05:47.446Z,1.38
2022-10-05T09:09:07.320Z,1.20
2022-10-05T09:12:21.620Z,2.00
2022-10-05T09:15:27.718Z,1.23
2022-10-05T09:19:00.405Z,1.33
2022-10-05T09:22:15.389Z,1.75
2022-10-05T09:25:39.622Z,2.03
2022-10-05T09:28:56.269Z,2.20
2022-10-05T09:32:35.601Z,2.10
2022-10-05T09:35:57.457Z,1.42
2022-10-05T09:39:05.262Z,2.17
2022-10-05T09:42:25.547Z,1.77
2022-10-05T09:45:27.483Z,1.60
2022-10-05T09:48:54.305Z,1.70
2022-10-05T09:52:06.276Z,1.60
2022-10-05T09:55:42.192Z,1.63
2022-10-05T09:59:08.834Z,2.10
2022-10-05T10:02:27.656Z,1.60
2022-10-05T10:05:56.900Z,1.02
2022-10-05T10:09:10.308Z,0.80
2022-10-05T10:13:02.330Z,1.05
2022-10-05T10:16:23.758Z,1.10
2022-10-05T10:19:56.486Z,1.15
2022-10-05T10:23:49.387Z,1.00
2022-10-05T10:27:09.876Z,0.95
2022-10-05T10:30:54.741Z,1.38
2022-10-05T10:34:29.501Z,0.95
2022-10-05T10:37:34.531Z,1.15
2022-10-05T10:40:55.090Z,1.20
2022-10-05T10:43:59.820Z,1.02
2022-10-05T10:47:23.957Z,1.00
2022-10-05T10:50:33.300Z,1.40
2022-10-05T10:54:22.275Z,1.27
2022-10-05T10:57:46.008Z,0.80
2022-10-05T11:00:59.639Z,1.60
2022-10-05T11:04:26.532Z,1.38
2022-10-05T11:07:57.133Z,1.65
2022-10-05T11:11:29.579Z,1.33
2022-10-05T11:15:05.597Z,1.55
2022-10-05T11:18:20.489Z,1.35
2022-10-05T11:21:31.800Z,2.00
2022-10-05T11:24:52.033Z,1.45
2022-10-05T11:28:14.368Z,1.67
2022-10-05T11:31:28.056Z,1.10
2022-10-05T11:34:48.375Z,1.63
2022-10-05T11:38:04.119Z,1.15
2022-10-05T11:41:41.353Z,2.03
2022-10-05T11:45:11.860Z,1.75
2022-10-05T11:48:32.324Z,1.00
2022-10-05T11:52:09.802Z,0.95
2022-10-05T11:55:39.749Z,1.00
2022-10-05T11:58:47.463Z,1.02
2022-10-05T12:02:43.064Z,1.15
2022-10-05T12:06:06.034Z,1.05
2022-10-05T12:10:10.977Z,0.82
2022-10-05T12:13:56.151Z,0.70
2022-10-05T12:17:03.074Z,1.30
2022-10-05T12:23:42.746Z,0.98
2022-10-05T12:26:55.645Z,1.55
2022-10-05T12:30:07.005Z,0.98
2022-10-05T12:33:13.914Z,1.23
2022-10-05T12:39:30.229Z,0.95
2022-10-05T12:42:42.843Z,1.23
2022-10-05T12:46:19.845Z,0.85
2022-10-05T12:49:30.770Z,0.80
2022-10-05T12:52:38.760Z,0.98
2022-10-05T12:56:02.189Z,1.15
2022-10-05T12:59:18.826Z,1.42
2022-10-05T13:02:51.034Z,1.53
2022-10-05T13:06:04.315Z,1.30
2022-10-05T13:09:19.118Z,1.42
2022-10-05T13:12:20.974Z,0.88
2022-10-05T13:15:36.499Z,1.27
2022-10-05T13:18:54.589Z,1.27
2022-10-05T13:22:04.998Z,0.80
2022-10-05T13:25:32.830Z,1.25
2022-10-05T13:31:46.410Z,1.50
2022-10-05T13:35:00.399Z,1.40
2022-10-05T13:38:28.475Z,0.90
2022-10-05T13:41:30.314Z,1.27
2022-10-05T13:44:53.500Z,1.33
2022-10-05T13:48:26.965Z,1.40
2022-10-05T13:52:00.192Z,1.52
2022-10-05T13:55:11.691Z,1.55
2022-10-05T13:58:47.032Z,1.17
2022-10-05T14:02:03.074Z,1.90
2022-10-05T14:05:24.101Z,1.40
2022-10-05T14:08:32.297Z,1.95
2022-10-05T14:11:36.919Z,1.23
2022-10-05T14:14:59.459Z,1.73
2022-10-05T14:18:28.039Z,1.50
2022-10-05T14:21:32.003Z,0.85
2022-10-05T14:24:48.045Z,1.27
2022-10-05T14:28:01.054Z,1.60
2022-10-05T14:31:14.578Z,1.10
2022-10-05T14:34:27.582Z,1.58
2022-10-05T14:38:03.278Z,1.75
2022-10-05T14:41:08.685Z,1.58
2022-10-05T14:44:17.995Z,2.45
2022-10-05T14:47:24.289Z,2.97
2022-10-05T14:50:34.942Z,3.50
2022-10-05T14:53:44.532Z,2.45
2022-10-05T14:56:59.345Z,2.65
2022-10-05T15:00:11.409Z,2.83
2022-10-05T15:03:45.613Z,2.58
2022-10-05T15:07:04.444Z,1.65
2022-10-05T15:13:55.750Z,3.38
2022-10-05T15:17:05.876Z,2.95
2022-10-05T15:20:20.698Z,3.95
2022-10-05T15:23:31.721Z,4.80
2022-10-05T15:26:46.741Z,4.63
2022-10-05T15:30:00.728Z,5.07
2022-10-05T15:33:29.902Z,2.03
2022-10-05T15:37:04.605Z,1.80
2022-10-05T15:40:36.874Z,1.30
2022-10-05T15:43:47.085Z,1.63
2022-10-05T15:47:10.651Z,0.95
2022-10-05T15:50:21.977Z,0.85
2022-10-05T15:53:36.271Z,1.38
2022-10-05T15:56:43.046Z,0.80
2022-10-05T16:00:05.916Z,1.02
2022-10-05T16:03:21.720Z,1.38
2022-10-05T16:06:49.066Z,1.05
2022-10-05T16:10:02.903Z,0.93
2022-10-05T16:13:29.421Z,1.20
2022-10-05T16:16:52.996Z,1.23
2022-10-05T16:20:05.412Z,1.25
2022-10-05T16:23:22.086Z,1.20
2022-10-05T16:26:42.597Z,1.70
2022-10-05T16:30:02.944Z,1.13
2022-10-05T16:33:39.831Z,0.95
2022-10-05T16:37:02.726Z,1.98
2022-10-05T16:40:08.688Z,2.20
2022-10-05T16:43:29.033Z,1.95
2022-10-05T16:46:46.968Z,1.40
2022-10-05T16:49:57.837Z,0.85
2022-10-05T16:53:11.603Z,1.20
2022-10-05T16:56:19.706Z,1.17
2022-10-05T16:59:44.041Z,1.60
2022-10-05T17:02:58.177Z,1.73
2022-10-05T17:06:20.365Z,2.22
2022-10-05T17:10:03.713Z,1.13
2022-10-05T17:13:29.171Z,0.80
2022-10-05T17:17:26.660Z,1.23
2022-10-05T17:20:57.290Z,1.10
2022-10-05T17:24:22.608Z,1.20
2022-10-05T17:27:54.137Z,1.27
2022-10-05T17:30:58.977Z,1.45
2022-10-05T17:34:23.677Z,1.27
2022-10-05T17:37:43.965Z,1.23
2022-10-05T17:41:05.800Z,0.90
2022-10-05T17:44:13.922Z,1.40
2022-10-05T17:47:16.405Z,1.05
2022-10-05T17:50:55.507Z,5.65
2022-10-05T17:54:16.583Z,4.65
2022-10-05T17:57:25.697Z,5.60
2022-10-05T18:00:42.134Z,9.05
2022-10-05T18:03:51.828Z,9.40
2022-10-05T18:06:57.382Z,12.68
2022-10-05T18:10:04.647Z,13.45
2022-10-05T18:13:35.279Z,11.30
2022-10-05T18:16:57.256Z,12.98
2022-10-05T18:20:24.325Z,13.23
2022-10-05T18:23:30.097Z,10.73
2022-10-05T18:26:47.242Z,9.87
2022-10-05T18:30:09.431Z,6.38
2022-10-05T18:33:49.527Z,10.48
2022-10-05T18:37:27.085Z,12.20
2022-10-05T18:40:32.127Z,8.37
2022-10-05T18:43:51.469Z,7.93
2022-10-05T18:47:15.834Z,6.85
2022-10-05T18:50:38.853Z,4.03
2022-10-05T18:54:03.845Z,3.78
2022-10-05T18:57:30.017Z,12.13
2022-10-05T19:00:44.143Z,7.30
2022-10-05T19:03:55.299Z,4.68
2022-10-05T19:06:57.377Z,6.05
2022-10-05T19:10:07.858Z,8.07
2022-10-05T19:13:47.126Z,4.65
2022-10-05T19:17:08.134Z,3.95
2022-10-05T19:20:35.979Z,3.20
2022-10-05T19:27:27.137Z,4.88
2022-10-05T19:30:44.019Z,3.63
2022-10-05T19:34:01.934Z,2.95
2022-10-05T19:37:21.437Z,2.83
2022-10-05T19:40:39.275Z,2.70
2022-10-05T19:43:58.561Z,3.95
2022-10-05T19:47:02.966Z,3.85
2022-10-05T19:50:22.126Z,10.15
2022-10-05T19:53:31.372Z,16.65
2022-10-05T19:56:34.424Z,38.83
2022-10-05T19:59:37.627Z,32.03
2022-10-05T20:02:42.186Z,32.15
2022-10-05T20:05:45.077Z,11.95
2022-10-05T20:08:49.826Z,9.00
2022-10-05T20:11:53.288Z,10.88
2022-10-05T20:15:25.410Z,16.05
2022-10-05T20:19:01.533Z,3.25
2022-10-05T20:22:24.091Z,7.25
2022-10-05T20:25:26.159Z,3.45
2022-10-05T20:28:32.271Z,2.97
2022-10-05T20:31:35.247Z,2.45
2022-10-05T20:34:41.535Z,2.30
2022-10-05T20:37:43.579Z,3.50
2022-10-05T20:40:50.081Z,2.20
2022-10-05T20:43:52.200Z,2.47
2022-10-05T20:46:57.698Z,2.67
2022-10-05T20:49:59.918Z,1.67
2022-10-05T20:53:02.122Z,2.90
2022-10-05T20:56:04.758Z,3.17
2022-10-05T20:59:06.845Z,2.08
2022-10-05T21:02:10.281Z,1.85
2022-10-05T21:05:12.566Z,2.10
2022-10-05T21:08:14.399Z,2.03
2022-10-05T21:11:17.578Z,2.75
2022-10-05T21:14:19.279Z,1.85
2022-10-05T21:17:21.254Z,1.80
2022-10-05T21:20:23.259Z,1.25
2022-10-05T21:23:25.284Z,1.65
2022-10-05T21:26:29.209Z,1.48
2022-10-05T21:29:35.454Z,2.42
2022-10-05T21:32:41.777Z,4.10
2022-10-05T21:35:46.068Z,15.57
2022-10-05T21:38:48.856Z,5.88
2022-10-05T21:41:50.787Z,3.65
2022-10-05T21:44:52.762Z,1.73
2022-10-05T21:47:54.761Z,2.20
2022-10-05T21:50:57.772Z,4.22
2022-10-05T21:54:07.346Z,4.07
2022-10-05T21:57:11.366Z,2.38
2022-10-05T22:00:16.484Z,1.92
2022-10-05T22:03:18.384Z,2.45
2022-10-05T22:06:20.179Z,1.83
2022-10-05T22:09:24.474Z,1.45
2022-10-05T22:12:26.563Z,1.58
2022-10-05T22:15:29.676Z,1.27
2022-10-05T22:18:31.798Z,1.45
2022-10-05T22:21:38.219Z,1.27
2022-10-05T22:24:40.065Z,1.83
2022-10-05T22:27:43.072Z,1.88
2022-10-05T22:30:45.416Z,1.27
2022-10-05T22:33:47.151Z,1.85
2022-10-05T22:36:49.076Z,1.50
2022-10-05T22:39:50.920Z,1.85
2022-10-05T22:42:54.575Z,2.10
2022-10-05T22:45:56.643Z,1.70
2022-10-05T22:48:58.457Z,1.48
2022-10-05T22:52:00.191Z,2.03
2022-10-05T22:55:02.242Z,2.72
2022-10-05T22:58:04.046Z,2.70
2022-10-05T23:01:08.546Z,1.63
2022-10-05T23:04:16.886Z,2.00
2022-10-05T23:07:18.745Z,1.55
2022-10-05T23:10:20.469Z,0.93
2022-10-05T23:13:22.639Z,1.70
2022-10-05T23:16:26.904Z,1.80
2022-10-05T23:19:30.144Z,1.25
2022-10-05T23:22:36.754Z,1.25
2022-10-05T23:25:38.543Z,1.52
2022-10-05T23:28:43.237Z,1.67
2022-10-05T23:31:45.175Z,1.38
2022-10-05T23:34:48.978Z,1.35
2022-10-05T23:37:51.076Z,1.20
2022-10-05T23:40:52.932Z,2.25
2022-10-05T23:43:55.374Z,1.77
2022-10-05T23:46:57.320Z,1.45
2022-10-05T23:50:01.621Z,1.58
2022-10-05T23:53:03.931Z,1.52
2022-10-05T23:56:06.093Z,1.20
2022-10-05T23:59:07.779Z,2.28
